Time;durP1;ratioP1;P1;durP2;ratioP2;P2;SDS_P1;SDS_P2;PMS_P1;PMS_P2;Temp;Humidity;BMP_temperature;BMP_pressure;BME280_temperature;BME280_humidity;BME280_pressure;Samples;Min_cycle;Max_cycle;Signal;HPM_P1;HPM_P2
2023/05/17 00:01:41;;;;;;;;;;;;;;;22.02;46.47;101410.44;5004908;28;4182;-74
2023/05/17 00:04:08;;;;;;;;;;;;;;;22.02;46.46;101403.94;5006174;28;4072;-74
2023/05/17 00:06:34;;;;;;;;;;;;;;;22.00;46.65;101401.69;4998161;28;4102;-74
2023/05/17 00:09:01;;;;;;;;;;;;;;;22.00;46.55;101400.94;5004925;28;4092;-72
2023/05/17 00:11:28;;;;;;;;;;;;;;;21.99;46.41;101397.31;5005664;28;4212;-74
2023/05/17 00:13:54;;;;;;;;;;;;;;;21.95;46.55;101397.84;5006870;28;4005;-74
2023/05/17 00:16:20;;;;;;;;;;;;;;;22.00;46.71;101404.56;5002984;28;4010;-74
2023/05/17 00:18:47;;;;;;;;;;;;;;;21.95;46.62;101405.78;5004399;28;4093;-74
2023/05/17 00:21:13;;;;;;;;;;;;;;;21.94;47.00;101407.16;5008375;28;3905;-73
2023/05/17 00:23:40;;;;;;;;;;;;;;;21.98;46.52;101404.47;5004410;28;4053;-70
2023/05/17 00:26:06;;;;;;;;;;;;;;;21.94;46.82;101405.03;5006004;28;4085;-74
2023/05/17 00:28:33;;;;;;;;;;;;;;;21.95;46.37;101400.00;5006206;28;5253;-74
2023/05/17 00:30:59;;;;;;;;;;;;;;;21.92;46.86;101395.50;5008878;28;3943;-71
2023/05/17 00:33:28;;;;;;;;;;;;;;;21.90;46.64;101401.19;5009779;28;4170;-72
2023/05/17 00:35:55;;;;;;;;;;;;;;;21.92;46.86;101404.16;5007384;28;5095;-74
2023/05/17 00:38:21;;;;;;;;;;;;;;;21.92;46.68;101398.41;5010707;28;4107;-72
2023/05/17 00:40:48;;;;;;;;;;;;;;;21.90;46.61;101393.28;5009330;28;3890;-74
2023/05/17 00:43:14;;;;;;;;;;;;;;;21.88;46.68;101401.09;5010567;28;3923;-74
2023/05/17 00:45:41;;;;;;;;;;;;;;;21.87;46.58;101400.34;5007332;28;4065;-71
2023/05/17 00:48:07;;;;;;;;;;;;;;;21.89;46.71;101397.56;5007778;28;3939;-71
2023/05/17 00:50:34;;;;;;;;;;;;;;;21.89;46.71;101396.81;5007915;28;4293;-74
2023/05/17 00:53:00;;;;;;;;;;;;;;;21.90;46.65;101395.44;5006018;28;4018;-74
2023/05/17 00:55:27;;;;;;;;;;;;;;;21.86;46.68;101403.88;5010995;28;4016;-74
2023/05/17 00:57:54;;;;;;;;;;;;;;;21.88;46.77;101406.88;5006192;28;4105;-72
2023/05/17 01:00:20;;;;;;;;;;;;;;;21.92;46.65;101401.28;5012065;28;4007;-71
2023/05/17 01:02:47;;;;;;;;;;;;;;;21.91;46.84;101412.06;5005975;28;5097;-71
2023/05/17 01:05:14;;;;;;;;;;;;;;;21.90;46.62;101404.09;5007682;28;4006;-71
2023/05/17 01:07:40;;;;;;;;;;;;;;;21.88;46.59;101398.22;4990964;28;4084;-71
2023/05/17 01:10:07;;;;;;;;;;;;;;;21.83;46.97;101396.50;5015892;28;4141;-74
2023/05/17 01:12:42;;;;;;;;;;;;;;;21.83;46.51;101399.41;5017486;28;4068;-74
2023/05/17 01:15:11;;;;;;;;;;;;;;;21.82;46.79;101397.91;5011487;28;4198;-71
2023/05/17 01:17:46;;;;;;;;;;;;;;;21.82;46.83;101406.56;5008741;28;5399;-74
2023/05/17 01:20:31;;;;;;;;;;;;;;;21.85;46.58;101419.69;5023070;28;4117;-73
2023/05/17 01:23:07;;;;;;;;;;;;;;;21.85;46.67;101411.03;5009117;28;4044;-71
2023/05/17 01:25:35;;;;;;;;;;;;;;;21.80;46.38;101415.09;5005313;28;4106;-74
2023/05/17 01:28:02;;;;;;;;;;;;;;;21.83;46.50;101416.69;5006991;28;4092;-74
2023/05/17 01:30:29;;;;;;;;;;;;;;;21.82;46.69;101415.22;5012369;28;3976;-71
2023/05/17 01:32:57;;;;;;;;;;;;;;;21.82;46.72;101412.34;5009335;28;4137;-71
2023/05/17 01:35:24;;;;;;;;;;;;;;;21.81;46.58;101407.97;5010815;28;5129;-74
2023/05/17 01:37:52;;;;;;;;;;;;;;;21.80;46.42;101412.97;5008177;28;3942;-74
2023/05/17 01:40:19;;;;;;;;;;;;;;;21.80;46.46;101409.34;5008096;28;4065;-71
2023/05/17 01:42:47;;;;;;;;;;;;;;;21.79;46.77;101416.50;5005086;28;4056;-71
2023/05/17 01:45:20;;;;;;;;;;;;;;;21.75;46.76;101422.81;4991305;28;3928;-74
2023/05/17 01:47:46;;;;;;;;;;;;;;;21.78;46.60;101423.66;5010349;28;4626;-74
2023/05/17 01:50:13;;;;;;;;;;;;;;;21.77;46.73;101425.78;5004430;28;3985;-72
2023/05/17 01:52:49;;;;;;;;;;;;;;;21.75;46.51;101422.81;4990140;28;5359;-71
2023/05/17 01:55:18;;;;;;;;;;;;;;;21.78;46.63;101420.78;5010027;28;4126;-74
2023/05/17 01:57:44;;;;;;;;;;;;;;;21.78;46.66;101426.53;5007466;28;4043;-74
2023/05/17 02:00:11;;;;;;;;;;;;;;;21.78;46.46;101432.31;4991424;28;4214;-74
2023/05/17 02:02:40;;;;;;;;;;;;;;;21.76;46.63;101427.19;5004464;28;4340;-74
2023/05/17 02:05:07;;;;;;;;;;;;;;;21.77;46.70;101425.06;5007918;28;4167;-74
2023/05/17 02:07:33;;;;;;;;;;;;;;;21.72;46.77;101429.88;5012664;28;4672;-72
2023/05/17 02:10:00;;;;;;;;;;;;;;;21.75;46.39;101435.09;5008954;28;4022;-72
2023/05/17 02:12:26;;;;;;;;;;;;;;;21.72;46.66;101433.50;5006841;28;4018;-71
2023/05/17 02:14:54;;;;;;;;;;;;;;;21.72;46.55;101424.84;5009942;28;5280;-74
2023/05/17 02:17:20;;;;;;;;;;;;;;;21.74;46.69;101427.84;5012248;28;4032;-74
2023/05/17 02:19:47;;;;;;;;;;;;;;;21.72;46.72;101429.88;5012904;28;4011;-74
2023/05/17 02:22:14;;;;;;;;;;;;;;;21.73;46.51;101429.22;5008319;28;4435;-72
2023/05/17 02:24:41;;;;;;;;;;;;;;;21.75;46.59;101435.09;5015379;28;4595;-74
2023/05/17 02:27:07;;;;;;;;;;;;;;;21.74;46.57;101433.59;5013691;28;5334;-74
2023/05/17 02:29:33;;;;;;;;;;;;;;;21.74;46.82;101424.94;5011277;28;4176;-74
2023/05/17 02:32:00;;;;;;;;;;;;;;;21.69;46.79;101425.38;5008149;28;4022;-71
2023/05/17 02:34:26;;;;;;;;;;;;;;;21.71;46.76;101429.09;5007152;28;4155;-74
2023/05/17 02:36:53;;;;;;;;;;;;;;;21.70;46.58;101418.97;5012251;28;4059;-74
2023/05/17 02:39:19;;;;;;;;;;;;;;;21.73;46.34;101414.06;5007751;28;4029;-74
2023/05/17 02:41:46;;;;;;;;;;;;;;;21.72;46.47;101401.78;5003678;28;4308;-74
2023/05/17 02:44:12;;;;;;;;;;;;;;;21.71;46.77;101423.34;5000218;28;4527;-74
2023/05/17 02:46:38;;;;;;;;;;;;;;;21.69;46.58;101417.50;5002536;28;4139;-74
2023/05/17 02:49:05;;;;;;;;;;;;;;;21.65;46.96;101425.94;5007878;28;4032;-74
2023/05/17 02:51:31;;;;;;;;;;;;;;;21.65;46.52;101420.19;5003968;28;4108;-75
2023/05/17 02:53:58;;;;;;;;;;;;;;;21.66;46.42;101430.31;5014204;28;4029;-77
2023/05/17 02:56:25;;;;;;;;;;;;;;;21.62;46.67;101421.44;5002744;28;3933;-79
2023/05/17 02:58:51;;;;;;;;;;;;;;;21.61;46.69;101437.25;5004730;28;4146;-76
2023/05/17 03:01:18;;;;;;;;;;;;;;;21.63;46.90;101420.06;5022555;28;4112;-76
2023/05/17 03:03:44;;;;;;;;;;;;;;;21.65;46.38;101423.06;5004784;28;4308;-76
2023/05/17 03:06:11;;;;;;;;;;;;;;;21.63;46.51;101428.72;5007053;28;4127;-77
2023/05/17 03:08:39;;;;;;;;;;;;;;;21.67;46.55;101428.16;5009000;28;4321;-74
2023/05/17 03:11:06;;;;;;;;;;;;;;;21.62;46.64;101432.97;4996915;28;3920;-74
2023/05/17 03:13:33;;;;;;;;;;;;;;;21.64;46.72;101435.97;5006811;28;4229;-77
2023/05/17 03:15:59;;;;;;;;;;;;;;;21.64;46.73;101447.50;5011516;28;4118;-76
2023/05/17 03:18:26;;;;;;;;;;;;;;;21.64;46.75;101459.03;5007081;28;5371;-77
2023/05/17 03:20:52;;;;;;;;;;;;;;;21.62;46.76;101450.25;5013155;28;4137;-78
2023/05/17 03:23:20;;;;;;;;;;;;;;;21.47;46.92;101460.34;5013350;28;4080;-76
2023/05/17 03:25:56;;;;;;;;;;;;;;;21.50;47.03;101461.19;5011962;28;4146;-77
2023/05/17 03:28:24;;;;;;;;;;;;;;;21.48;46.91;101446.66;5011093;28;4330;-77
2023/05/17 03:30:50;;;;;;;;;;;;;;;21.41;46.66;101460.03;5015830;28;4031;-76
2023/05/17 03:33:17;;;;;;;;;;;;;;;21.44;46.83;101457.97;5007928;28;4167;-74
2023/05/17 03:35:45;;;;;;;;;;;;;;;21.57;46.52;101460.09;5012982;28;4553;-75
2023/05/17 03:38:12;;;;;;;;;;;;;;;21.61;46.42;101468.97;5009231;28;4215;-77
2023/05/17 03:40:39;;;;;;;;;;;;;;;21.57;46.64;101460.09;5038689;28;4030;-76
2023/05/17 03:43:05;;;;;;;;;;;;;;;21.60;46.88;101464.59;5010470;28;4193;-76
2023/05/17 03:45:32;;;;;;;;;;;;;;;21.54;46.82;101461.41;5010520;28;4143;-76
2023/05/17 03:47:58;;;;;;;;;;;;;;;21.55;46.70;101465.75;5012171;28;4008;-76
2023/05/17 03:50:26;;;;;;;;;;;;;;;21.54;46.92;101467.16;5012368;28;4047;-74
2023/05/17 03:52:52;;;;;;;;;;;;;;;21.56;46.62;101466.53;5004032;28;4236;-77
2023/05/17 03:55:19;;;;;;;;;;;;;;;21.59;46.72;101462.34;5008109;28;4230;-77
2023/05/17 03:57:45;;;;;;;;;;;;;;;21.53;46.61;101465.66;5011372;28;4251;-76
2023/05/17 04:00:13;;;;;;;;;;;;;;;21.58;46.50;101467.38;5013695;28;4045;-77
2023/05/17 04:02:42;;;;;;;;;;;;;;;21.61;46.67;101474.00;5004714;28;4086;-76
2023/05/17 04:05:11;;;;;;;;;;;;;;;21.58;46.70;101475.25;5003822;28;4182;-76
2023/05/17 04:07:39;;;;;;;;;;;;;;;21.59;46.71;101480.38;5004517;28;4215;-77
2023/05/17 04:10:06;;;;;;;;;;;;;;;21.57;46.55;101488.91;5007589;28;3954;-77
2023/05/17 04:12:33;;;;;;;;;;;;;;;21.54;46.57;101501.75;5006392;28;4230;-77
2023/05/17 04:15:00;;;;;;;;;;;;;;;21.54;46.65;101501.75;5012311;28;4027;-76
2023/05/17 04:17:27;;;;;;;;;;;;;;;21.55;46.79;101506.09;5014810;28;4122;-76
2023/05/17 04:19:53;;;;;;;;;;;;;;;21.57;46.58;101508.34;5017097;28;4114;-75
2023/05/17 04:22:20;;;;;;;;;;;;;;;21.54;46.67;101510.38;5017124;28;4117;-75
2023/05/17 04:24:48;;;;;;;;;;;;;;;21.54;46.73;101513.28;5003954;28;4217;-75
2023/05/17 04:27:14;;;;;;;;;;;;;;;21.53;46.64;101511.75;5016197;28;4136;-76
2023/05/17 04:29:41;;;;;;;;;;;;;;;21.50;46.86;101507.28;5007246;28;4047;-75
2023/05/17 04:32:08;;;;;;;;;;;;;;;21.52;46.88;101510.28;5010983;28;4102;-76
2023/05/17 04:34:34;;;;;;;;;;;;;;;21.43;46.97;101511.25;5011208;28;4644;-75
2023/05/17 04:37:02;;;;;;;;;;;;;;;21.41;46.66;101523.41;5016368;28;4078;-81
2023/05/17 04:39:30;;;;;;;;;;;;;;;21.36;46.34;101521.69;5023233;28;4008;-82
2023/05/17 04:41:56;;;;;;;;;;;;;;;21.31;45.89;101531.50;5018614;28;4109;-82
2023/05/17 04:44:23;;;;;;;;;;;;;;;21.27;45.32;101526.25;5012870;28;4097;-82
2023/05/17 04:46:50;;;;;;;;;;;;;;;21.24;45.34;101533.31;5016530;28;4181;-81
2023/05/17 04:49:17;;;;;;;;;;;;;;;21.21;45.21;101533.81;5007840;28;4017;-82
2023/05/17 04:51:44;;;;;;;;;;;;;;;21.24;45.50;101533.31;5007744;28;4521;-76
2023/05/17 04:54:11;;;;;;;;;;;;;;;21.29;45.37;101535.00;5005391;28;4105;-78
2023/05/17 04:56:38;;;;;;;;;;;;;;;21.27;45.76;101543.53;5016029;28;4212;-78
2023/05/17 04:59:10;;;;;;;;;;;;;;;21.34;45.72;101548.22;5005466;28;4118;-80
2023/05/17 05:01:37;;;;;;;;;;;;;;;21.33;45.76;101549.63;5001662;28;4103;-75
2023/05/17 05:04:05;;;;;;;;;;;;;;;20.30;44.33;101551.13;4999939;28;4022;-73
2023/05/17 05:06:37;;;;;;;;;;;;;;;19.56;42.92;101566.88;5005801;28;4518;-73
2023/05/17 05:09:04;;;;;;;;;;;;;;;19.45;42.45;101565.50;5006022;28;4044;-78
2023/05/17 05:11:32;;;;;;;;;;;;;;;20.02;41.35;101573.97;5007388;28;4247;-79
2023/05/17 05:13:58;;;;;;;;;;;;;;;20.50;41.06;101569.53;5009274;28;4032;-79
2023/05/17 05:16:25;;;;;;;;;;;;;;;20.76;41.19;101581.06;5011277;28;3991;-79
2023/05/17 05:18:51;;;;;;;;;;;;;;;20.90;41.26;101581.13;5012884;28;4613;-79
2023/05/17 05:21:18;;;;;;;;;;;;;;;20.96;41.72;101589.34;5018536;28;4093;-79
2023/05/17 05:23:45;;;;;;;;;;;;;;;21.02;42.10;101598.31;5014983;28;4470;-79
2023/05/17 05:26:13;;;;;;;;;;;;;;;21.05;42.19;101603.56;5010014;28;4080;-80
2023/05/17 05:28:40;;;;;;;;;;;;;;;21.06;42.51;101607.94;5010534;28;4228;-79
2023/05/17 05:31:07;;;;;;;;;;;;;;;21.08;42.72;101598.66;5024906;28;4166;-79
2023/05/17 05:33:41;;;;;;;;;;;;;;;21.09;43.09;101611.66;5006649;28;4088;-79
2023/05/17 05:36:08;;;;;;;;;;;;;;;21.10;43.21;101610.31;5016362;28;4218;-79
2023/05/17 05:38:35;;;;;;;;;;;;;;;21.11;43.32;101617.53;5026408;28;4920;-79
2023/05/17 05:41:02;;;;;;;;;;;;;;;21.11;43.65;101614.66;5013094;28;4036;-79
2023/05/17 05:43:28;;;;;;;;;;;;;;;21.11;43.75;101617.53;5015711;28;4097;-79
2023/05/17 05:45:55;;;;;;;;;;;;;;;21.13;44.06;101617.66;5012697;28;4256;-78
2023/05/17 05:48:22;;;;;;;;;;;;;;;21.13;44.06;101624.16;5016179;28;3933;-78
2023/05/17 05:50:49;;;;;;;;;;;;;;;21.13;44.42;101620.53;5024754;28;4092;-79
2023/05/17 05:53:15;;;;;;;;;;;;;;;21.14;44.34;101624.91;5010426;28;3900;-78
2023/05/17 05:55:53;;;;;;;;;;;;;;;21.16;44.35;101630.03;5043323;28;5059;-79
2023/05/17 05:58:20;;;;;;;;;;;;;;;21.16;44.55;101630.78;5016487;28;4574;-79
2023/05/17 06:00:46;;;;;;;;;;;;;;;21.13;44.71;101640.69;5010475;28;4269;-79
2023/05/17 06:03:13;;;;;;;;;;;;;;;21.16;44.70;101641.56;5010223;28;4125;-79
2023/05/17 06:05:39;;;;;;;;;;;;;;;21.15;45.00;101648.72;5011547;28;4205;-78
2023/05/17 06:08:06;;;;;;;;;;;;;;;21.15;44.68;101646.56;5008412;28;4170;-79
2023/05/17 06:10:32;;;;;;;;;;;;;;;21.15;44.68;101648.72;5008115;28;4150;-79
2023/05/17 06:12:58;;;;;;;;;;;;;;;21.14;44.97;101650.81;5009755;28;4322;-80
2023/05/17 06:15:25;;;;;;;;;;;;;;;21.15;45.14;101645.84;5013942;28;4522;-79
2023/05/17 06:17:51;;;;;;;;;;;;;;;21.12;44.98;101651.47;5010176;28;4465;-80
2023/05/17 06:20:18;;;;;;;;;;;;;;;21.11;45.11;101652.09;5009691;28;3992;-79
2023/05/17 06:22:44;;;;;;;;;;;;;;;21.11;45.21;101652.09;5008348;28;3987;-79
2023/05/17 06:25:11;;;;;;;;;;;;;;;21.13;45.25;101666.63;5009885;28;4148;-79
2023/05/17 06:27:37;;;;;;;;;;;;;;;21.11;45.27;101663.63;5010023;28;4101;-79
2023/05/17 06:30:04;;;;;;;;;;;;;;;21.16;45.07;101670.34;5013267;28;4207;-79
2023/05/17 06:32:32;;;;;;;;;;;;;;;21.15;45.06;101669.63;5011764;28;4184;-79
2023/05/17 06:34:59;;;;;;;;;;;;;;;21.15;45.54;101663.13;5008269;28;4463;-79
2023/05/17 06:37:25;;;;;;;;;;;;;;;21.12;45.33;101668.00;5012831;28;4509;-79
2023/05/17 06:39:52;;;;;;;;;;;;;;;21.14;45.20;101673.88;5007485;28;4872;-79
2023/05/17 06:42:34;;;;;;;;;;;;;;;21.12;45.37;101671.63;5011528;28;4215;-79
2023/05/17 06:45:01;;;;;;;;;;;;;;;21.13;45.53;101669.50;4999299;28;4064;-79
2023/05/17 06:47:27;;;;;;;;;;;;;;;21.13;45.29;101664.47;5007827;28;4334;-79
2023/05/17 06:49:54;;;;;;;;;;;;;;;21.14;45.37;101670.97;5008310;28;4667;-79
2023/05/17 06:52:20;;;;;;;;;;;;;;;21.14;45.22;101676.75;5005463;28;5360;-79
2023/05/17 06:54:47;;;;;;;;;;;;;;;21.15;45.49;101680.41;5009377;28;4146;-79
2023/05/17 06:57:13;;;;;;;;;;;;;;;21.13;45.45;101684.66;5009912;28;4127;-79
2023/05/17 06:59:40;;;;;;;;;;;;;;;21.15;45.54;101691.91;5012005;28;4114;-78
2023/05/17 07:02:06;;;;;;;;;;;;;;;21.15;45.24;101686.91;5008045;28;4089;-78
2023/05/17 07:04:32;;;;;;;;;;;;;;;21.14;45.41;101688.25;5007820;28;4572;-78
2023/05/17 07:06:59;;;;;;;;;;;;;;;21.13;45.14;101692.53;5006385;28;4147;-78
2023/05/17 07:09:25;;;;;;;;;;;;;;;21.13;45.45;101683.91;5011568;28;4033;-78
2023/05/17 07:11:52;;;;;;;;;;;;;;;21.13;45.46;101683.91;5009335;28;4100;-79
2023/05/17 07:14:18;;;;;;;;;;;;;;;21.13;45.37;101684.66;5012097;28;4022;-79
2023/05/17 07:16:45;;;;;;;;;;;;;;;21.13;45.50;101681.03;5009481;28;4338;-78
2023/05/17 07:19:11;;;;;;;;;;;;;;;21.13;45.61;101672.38;5007916;28;4156;-79
2023/05/17 07:21:37;;;;;;;;;;;;;;;21.13;45.41;101678.13;5009246;28;4143;-78
2023/05/17 07:24:04;;;;;;;;;;;;;;;21.13;45.57;101690.41;5011045;28;4018;-79
2023/05/17 07:26:31;;;;;;;;;;;;;;;21.13;45.55;101681.75;5005473;28;4158;-79
2023/05/17 07:28:57;;;;;;;;;;;;;;;21.14;45.61;101691.16;5007137;28;4215;-79
2023/05/17 07:31:24;;;;;;;;;;;;;;;21.12;45.75;101691.81;5008246;28;4194;-78
2023/05/17 07:33:50;;;;;;;;;;;;;;;21.13;45.85;101695.41;5010862;28;4245;-79
2023/05/17 07:36:17;;;;;;;;;;;;;;;21.15;45.76;101695.53;5008446;28;4200;-79
2023/05/17 07:38:43;;;;;;;;;;;;;;;21.16;45.90;101694.13;5011523;28;4198;-78
2023/05/17 07:41:12;;;;;;;;;;;;;;;21.17;45.55;101704.28;5010427;28;4104;-78
2023/05/17 07:43:39;;;;;;;;;;;;;;;21.17;45.77;101710.06;5006950;28;4255;-79
2023/05/17 07:46:05;;;;;;;;;;;;;;;21.18;45.72;101705.78;5009416;28;4553;-79
2023/05/17 07:48:31;;;;;;;;;;;;;;;21.17;45.74;101710.06;5013304;28;4076;-79
2023/05/17 07:50:58;;;;;;;;;;;;;;;21.18;45.76;101719.44;5014100;28;4545;-79
2023/05/17 07:53:24;;;;;;;;;;;;;;;21.19;45.59;101726.69;5011247;28;4650;-78
2023/05/17 07:55:53;;;;;;;;;;;;;;;21.18;45.78;101743.22;5012300;28;4210;-79
2023/05/17 07:58:19;;;;;;;;;;;;;;;21.19;45.73;101729.56;5010191;28;4258;-79
2023/05/17 08:00:45;;;;;;;;;;;;;;;21.18;45.83;101748.97;5011413;28;4273;-79
2023/05/17 08:03:12;;;;;;;;;;;;;;;21.19;45.61;101744.75;5013627;28;4343;-79
2023/05/17 08:05:42;;;;;;;;;;;;;;;21.19;45.73;101743.97;5013053;28;4223;-78
2023/05/17 08:08:08;;;;;;;;;;;;;;;21.20;45.66;101748.38;5010237;28;3991;-78
2023/05/17 08:10:36;;;;;;;;;;;;;;;21.18;45.83;101754.75;5012008;28;4457;-78
2023/05/17 08:13:03;;;;;;;;;;;;;;;21.19;45.70;101750.50;5012329;28;4280;-79
2023/05/17 08:15:29;;;;;;;;;;;;;;;21.18;45.73;101760.50;5011257;28;3975;-78
2023/05/17 08:17:56;;;;;;;;;;;;;;;21.18;45.87;101748.97;5013899;28;4124;-78
2023/05/17 08:20:23;;;;;;;;;;;;;;;21.19;45.91;101758.38;5008927;28;4009;-78
2023/05/17 08:22:49;;;;;;;;;;;;;;;21.17;45.87;101753.25;5007642;28;4200;-79
2023/05/17 08:25:18;;;;;;;;;;;;;;;21.18;45.77;101757.63;5009859;28;4147;-80
2023/05/17 08:27:44;;;;;;;;;;;;;;;21.19;45.79;101767.78;5014365;28;4497;-79
2023/05/17 08:30:11;;;;;;;;;;;;;;;21.18;45.83;101754.00;5010869;28;4227;-79
2023/05/17 08:32:46;;;;;;;;;;;;;;;21.19;45.71;101758.38;5011575;28;3916;-79
2023/05/17 08:35:13;;;;;;;;;;;;;;;21.18;45.96;101760.50;5012638;28;4069;-79
2023/05/17 08:37:39;;;;;;;;;;;;;;;21.18;45.75;101760.50;5010326;28;4028;-78
2023/05/17 08:40:06;;;;;;;;;;;;;;;21.18;45.97;101760.50;5011009;28;4201;-78
2023/05/17 08:42:32;;;;;;;;;;;;;;;21.19;45.77;101755.50;5006738;28;4210;-79
2023/05/17 08:44:59;;;;;;;;;;;;;;;21.19;45.68;101761.25;5009012;28;4544;-79
2023/05/17 08:47:28;;;;;;;;;;;;;;;21.19;45.99;101767.00;5010208;28;4890;-79
2023/05/17 08:49:56;;;;;;;;;;;;;;;21.19;46.04;101767.78;5012793;28;4101;-79
2023/05/17 08:52:22;;;;;;;;;;;;;;;21.20;46.11;101763.50;5007866;28;4277;-79
2023/05/17 08:54:49;;;;;;;;;;;;;;;21.19;46.01;101759.13;5011449;28;4127;-78
2023/05/17 08:57:16;;;;;;;;;;;;;;;21.20;46.02;101757.75;5009293;28;4112;-79
2023/05/17 08:59:43;;;;;;;;;;;;;;;21.20;46.07;101769.25;5016849;28;4051;-70
2023/05/17 09:02:10;;;;;;;;;;;;;;;21.20;46.20;101775.03;5005819;28;4277;-67
2023/05/17 09:04:36;;;;;;;;;;;;;;;21.19;45.93;101770.66;5006488;28;4057;-67
2023/05/17 09:07:02;;;;;;;;;;;;;;;21.21;45.90;101770.78;5014193;28;4043;-66
2023/05/17 09:09:29;;;;;;;;;;;;;;;21.20;46.09;101757.75;5014831;28;4170;-67
2023/05/17 09:11:55;;;;;;;;;;;;;;;21.20;46.12;101763.50;5011746;28;4361;-67
2023/05/17 09:14:22;;;;;;;;;;;;;;;21.19;46.11;101756.25;5010266;28;4112;-67
2023/05/17 09:16:49;;;;;;;;;;;;;;;21.19;45.95;101770.66;5010441;28;4018;-67
2023/05/17 09:19:16;;;;;;;;;;;;;;;21.21;45.83;101761.38;5007510;28;4064;-67
2023/05/17 09:21:46;;;;;;;;;;;;;;;21.21;46.05;101765.03;5008332;28;4252;-67
2023/05/17 09:24:13;;;;;;;;;;;;;;;21.20;45.87;101751.97;5011716;28;4497;-67
2023/05/17 09:26:40;;;;;;;;;;;;;;;21.20;45.92;101763.50;5015383;28;4134;-66
2023/05/17 09:29:07;;;;;;;;;;;;;;;21.22;46.09;101766.50;5011437;28;4127;-67
2023/05/17 09:31:33;;;;;;;;;;;;;;;21.22;45.82;101760.75;5011576;28;3987;-67
2023/05/17 09:34:00;;;;;;;;;;;;;;;21.22;45.90;101760.00;5011535;28;4382;-67
2023/05/17 09:36:27;;;;;;;;;;;;;;;21.21;45.81;101753.50;5010483;28;4066;-67
2023/05/17 09:39:00;;;;;;;;;;;;;;;21.21;45.75;101759.25;5008348;28;4157;-67
2023/05/17 09:41:27;;;;;;;;;;;;;;;21.21;45.83;101747.75;5012707;28;4424;-67
2023/05/17 09:43:56;;;;;;;;;;;;;;;21.22;46.04;101754.97;5007821;28;4379;-67
2023/05/17 09:46:22;;;;;;;;;;;;;;;21.23;45.67;101758.59;5012252;28;4152;-67
2023/05/17 09:48:52;;;;;;;;;;;;;;;21.22;46.02;101757.88;5003018;28;4089;-66
2023/05/17 09:51:19;;;;;;;;;;;;;;;21.22;46.00;101763.63;5008727;28;4185;-66
2023/05/17 09:53:45;;;;;;;;;;;;;;;21.23;46.05;101762.22;5009285;28;4098;-66
2023/05/17 09:56:12;;;;;;;;;;;;;;;21.24;46.18;101775.28;5015865;28;4119;-67
2023/05/17 09:58:38;;;;;;;;;;;;;;;21.24;46.05;101763.00;5012933;28;4562;-67
2023/05/17 10:01:05;;;;;;;;;;;;;;;21.26;45.94;101755.22;5012482;28;4009;-67
2023/05/17 10:03:32;;;;;;;;;;;;;;;21.25;46.08;101770.25;5012426;28;3946;-67
2023/05/17 10:06:00;;;;;;;;;;;;;;;21.25;45.85;101771.00;5006727;28;4190;-67
2023/05/17 10:08:27;;;;;;;;;;;;;;;21.25;46.01;101770.25;5013400;28;4142;-67
2023/05/17 10:10:57;;;;;;;;;;;;;;;21.25;46.16;101768.09;5007567;28;4155;-67
2023/05/17 10:13:24;;;;;;;;;;;;;;;21.25;45.97;101770.25;5009581;28;4146;-67
2023/05/17 10:15:51;;;;;;;;;;;;;;;21.24;46.30;101768.75;5009660;28;4201;-67
2023/05/17 10:18:17;;;;;;;;;;;;;;;21.25;45.83;101762.34;5009069;28;4095;-67
2023/05/17 10:20:44;;;;;;;;;;;;;;;21.26;46.15;101774.66;5006219;28;4177;-67
2023/05/17 10:23:10;;;;;;;;;;;;;;;21.27;46.12;101779.00;5009725;28;4144;-68
2023/05/17 10:25:37;;;;;;;;;;;;;;;21.27;46.34;101774.00;5003925;28;4208;-67
2023/05/17 10:28:05;;;;;;;;;;;;;;;21.28;46.49;101768.97;5000865;28;4122;-68
2023/05/17 10:30:32;;;;;;;;;;;;;;;21.28;46.53;101763.22;5012555;28;4157;-68
2023/05/17 10:32:58;;;;;;;;;;;;;;;21.29;46.27;101774.13;5012754;28;4184;-67
2023/05/17 10:35:26;;;;;;;;;;;;;;;21.29;46.51;101777.00;5005185;28;4076;-68
2023/05/17 10:37:53;;;;;;;;;;;;;;;21.29;46.33;101782.75;5014131;28;4097;-67
2023/05/17 10:40:20;;;;;;;;;;;;;;;21.30;46.36;101771.97;5012080;28;4175;-68
2023/05/17 10:42:51;;;;;;;;;;;;;;;21.30;46.35;101778.50;5007702;28;4107;-67
2023/05/17 10:45:21;;;;;;;;;;;;;;;21.31;46.60;101777.13;5009203;28;4058;-68
2023/05/17 10:47:49;;;;;;;;;;;;;;;21.31;46.49;101796.53;5012577;28;4170;-67
2023/05/17 10:50:20;;;;;;;;;;;;;;;21.30;46.68;101790.03;5010382;28;4205;-68
2023/05/17 10:52:47;;;;;;;;;;;;;;;21.31;46.56;101791.50;5009626;28;4158;-67
2023/05/17 10:55:17;;;;;;;;;;;;;;;21.31;46.72;101803.03;5008217;28;4234;-67
2023/05/17 10:57:43;;;;;;;;;;;;;;;21.31;46.49;101785.75;5004174;28;4074;-67
2023/05/17 11:00:19;;;;;;;;;;;;;;;21.30;46.84;101786.38;5006576;28;4073;-67
2023/05/17 11:02:47;;;;;;;;;;;;;;;21.32;46.68;101777.84;5008781;28;4170;-67
2023/05/17 11:05:23;;;;;;;;;;;;;;;21.31;46.66;101774.22;5009288;28;4194;-67
2023/05/17 11:07:50;;;;;;;;;;;;;;;21.36;46.66;101783.09;5011923;28;4146;-67
2023/05/17 11:10:17;;;;;;;;;;;;;;;21.33;46.84;101788.75;5011743;28;4170;-67
2023/05/17 11:12:44;;;;;;;;;;;;;;;21.34;46.88;101784.47;5009909;28;4474;-67
2023/05/17 11:15:14;;;;;;;;;;;;;;;21.37;46.90;101788.22;5005127;28;4063;-67
2023/05/17 11:17:45;;;;;;;;;;;;;;;21.34;46.97;101790.25;5006654;28;4316;-67
2023/05/17 11:20:15;;;;;;;;;;;;;;;21.38;47.02;101800.53;5014443;28;4300;-67
2023/05/17 11:22:49;;;;;;;;;;;;;;;21.38;47.19;101789.72;5012562;28;4118;-67
2023/05/17 11:25:16;;;;;;;;;;;;;;;21.39;47.03;101791.22;5005322;28;4012;-67
2023/05/17 11:27:45;;;;;;;;;;;;;;;21.40;47.35;101803.50;4987810;28;4014;-67
2023/05/17 11:30:16;;;;;;;;;;;;;;;21.40;47.28;101800.63;5010499;28;4114;-67
2023/05/17 11:32:45;;;;;;;;;;;;;;;21.40;47.33;101797.75;5005923;28;4285;-68
2023/05/17 11:35:12;;;;;;;;;;;;;;;21.40;47.25;101787.00;5007207;28;4149;-67
2023/05/17 11:37:38;;;;;;;;;;;;;;;21.41;47.20;101781.97;5007840;28;4092;-67
2023/05/17 11:40:05;;;;;;;;;;;;;;;21.40;47.32;101792.00;5009915;28;4221;-68
2023/05/17 11:42:32;;;;;;;;;;;;;;;21.40;47.43;101787.00;5012674;28;4179;-68
2023/05/17 11:45:01;;;;;;;;;;;;;;;21.41;47.33;101790.63;5010160;28;4465;-68
2023/05/17 11:47:28;;;;;;;;;;;;;;;21.41;47.55;101790.63;5008349;28;5097;-68
2023/05/17 11:49:55;;;;;;;;;;;;;;;21.42;47.68;101789.25;5007971;28;4045;-67
2023/05/17 11:52:22;;;;;;;;;;;;;;;21.42;47.53;101783.50;5006547;28;4468;-68
2023/05/17 11:54:48;;;;;;;;;;;;;;;21.42;47.92;101778.47;5012586;28;4181;-68
2023/05/17 11:57:16;;;;;;;;;;;;;;;21.43;47.63;101779.97;5009851;28;4008;-68
2023/05/17 11:59:43;;;;;;;;;;;;;;;21.43;47.80;101788.59;5006657;28;4445;-68
2023/05/17 12:02:09;;;;;;;;;;;;;;;21.45;47.92;101793.75;5009288;28;4167;-67
2023/05/17 12:04:36;;;;;;;;;;;;;;;21.44;48.15;101793.00;5009711;28;4869;-67
2023/05/17 12:07:03;;;;;;;;;;;;;;;21.44;48.23;101793.00;4989413;28;4063;-67
2023/05/17 12:09:30;;;;;;;;;;;;;;;21.45;48.29;101788.72;5006442;28;4571;-67
2023/05/17 12:11:56;;;;;;;;;;;;;;;21.46;48.02;101783.69;5009097;28;4321;-67
2023/05/17 12:14:23;;;;;;;;;;;;;;;21.47;48.13;101790.97;5008233;28;3957;-68
2023/05/17 12:16:51;;;;;;;;;;;;;;;21.46;48.26;101787.34;5009252;28;4108;-68
2023/05/17 12:19:18;;;;;;;;;;;;;;;21.46;48.33;101786.59;5001520;28;4002;-68
2023/05/17 12:21:45;;;;;;;;;;;;;;;21.47;48.31;101796.75;5002211;28;4194;-67
2023/05/17 12:24:11;;;;;;;;;;;;;;;21.49;48.33;101788.22;5004213;28;5033;-67
2023/05/17 12:26:42;;;;;;;;;;;;;;;21.49;48.40;101791.09;5008006;28;4157;-67
2023/05/17 12:29:09;;;;;;;;;;;;;;;21.50;48.59;101798.34;5010861;28;4519;-68
2023/05/17 12:31:38;;;;;;;;;;;;;;;21.49;48.56;101796.84;5014027;28;4672;-67
2023/05/17 12:34:05;;;;;;;;;;;;;;;21.51;48.51;101788.34;5011957;28;4071;-68
2023/05/17 12:36:38;;;;;;;;;;;;;;;21.51;48.57;101794.09;5004720;28;4154;-66
2023/05/17 12:39:05;;;;;;;;;;;;;;;21.52;48.64;101787.69;4999913;28;4092;-66
2023/05/17 12:41:31;;;;;;;;;;;;;;;21.52;48.54;101787.69;5009739;28;4514;-67
2023/05/17 12:43:58;;;;;;;;;;;;;;;21.53;48.54;101791.31;5044374;28;4486;-67
2023/05/17 12:46:40;;;;;;;;;;;;;;;21.53;48.79;101791.31;5014264;28;4163;-67
2023/05/17 12:49:07;;;;;;;;;;;;;;;21.53;48.69;101783.44;5011390;28;4522;-67